createdAt,value
2022-08-27T00:03:15.730Z,8.50
2022-08-27T00:08:20.144Z,8.83
2022-08-27T00:13:23.148Z,11.80
2022-08-27T00:18:26.398Z,12.93
2022-08-27T00:23:31.709Z,11.93
2022-08-27T00:28:35.872Z,10.70
2022-08-27T00:33:38.887Z,7.67
2022-08-27T00:38:43.406Z,9.37
2022-08-27T00:43:49.692Z,6.80
2022-08-27T00:48:54.644Z,5.20
2022-08-27T00:54:00.158Z,7.77
2022-08-27T00:59:04.151Z,8.07
2022-08-27T01:04:07.278Z,7.70
2022-08-27T01:09:18.111Z,6.20
2022-08-27T01:14:21.239Z,8.10
2022-08-27T01:19:30.229Z,8.97
2022-08-27T01:24:37.761Z,6.00
2022-08-27T01:29:41.268Z,7.17
2022-08-27T01:34:45.163Z,5.00
2022-08-27T01:39:49.602Z,6.83
2022-08-27T01:44:55.735Z,9.37
2022-08-27T01:49:58.766Z,5.57
2022-08-27T01:55:03.412Z,7.13
2022-08-27T02:00:09.509Z,5.03
2022-08-27T02:05:39.322Z,5.00
2022-08-27T02:10:51.484Z,5.93
2022-08-27T02:15:55.100Z,5.93
2022-08-27T02:20:58.166Z,9.40
2022-08-27T02:26:02.690Z,8.17
2022-08-27T02:31:06.237Z,6.00
2022-08-27T02:36:09.759Z,6.20
2022-08-27T02:41:14.383Z,7.17
2022-08-27T02:46:17.412Z,8.17
2022-08-27T02:51:20.465Z,5.70
2022-08-27T02:56:24.845Z,8.90
2022-08-27T03:01:28.162Z,7.00
2022-08-27T03:06:31.800Z,11.97
2022-08-27T03:11:36.171Z,7.53
2022-08-27T03:16:39.815Z,11.37
2022-08-27T03:21:42.965Z,11.63
2022-08-27T03:26:59.274Z,15.20
2022-08-27T03:32:02.584Z,17.40
2022-08-27T03:37:05.776Z,24.30
2022-08-27T03:42:10.557Z,17.53
2022-08-27T03:47:13.576Z,20.57
2022-08-27T03:52:17.101Z,20.60
2022-08-27T03:57:21.586Z,19.47
2022-08-27T04:02:24.779Z,21.33
2022-08-27T04:07:28.208Z,17.20
2022-08-27T04:12:32.642Z,17.40
2022-08-27T04:17:35.688Z,13.43
2022-08-27T04:22:39.477Z,19.00
2022-08-27T04:27:44.495Z,20.00
2022-08-27T04:32:47.549Z,14.50
2022-08-27T04:37:50.628Z,12.77
2022-08-27T04:42:55.588Z,10.27
2022-08-27T04:47:58.592Z,7.53
2022-08-27T04:53:02.143Z,8.30
2022-08-27T04:58:08.921Z,14.10
2022-08-27T05:03:12.007Z,17.00
2022-08-27T05:08:15.354Z,11.50
2022-08-27T05:13:21.418Z,10.50
2022-08-27T05:18:24.448Z,10.20
2022-08-27T05:23:28.150Z,14.70
2022-08-27T05:28:32.495Z,16.93
2022-08-27T05:33:35.715Z,26.00
2022-08-27T05:38:38.723Z,20.37
2022-08-27T05:43:49.119Z,25.73
2022-08-27T05:48:58.183Z,25.43
2022-08-27T05:54:08.041Z,25.70
2022-08-27T05:59:30.541Z,23.20
2022-08-27T06:04:33.546Z,20.83
2022-08-27T06:09:36.935Z,18.83
2022-08-27T06:14:41.367Z,19.90
2022-08-27T06:19:45.837Z,19.83
2022-08-27T06:24:48.856Z,13.43
2022-08-27T06:29:53.319Z,17.80
2022-08-27T06:34:56.534Z,12.03
2022-08-27T06:39:59.638Z,14.17
2022-08-27T06:45:04.366Z,16.87
2022-08-27T06:50:08.124Z,16.87
2022-08-27T06:55:11.962Z,15.90
2022-08-27T07:00:16.861Z,17.50
2022-08-27T07:05:20.077Z,16.10
2022-08-27T07:10:23.155Z,14.70
2022-08-27T07:15:28.018Z,14.00
2022-08-27T07:20:35.107Z,17.33
2022-08-27T07:25:38.186Z,11.27
2022-08-27T07:30:42.973Z,12.67
2022-08-27T07:35:47.078Z,11.13
2022-08-27T07:40:52.365Z,11.40
2022-08-27T07:45:58.260Z,12.83
2022-08-27T07:51:03.383Z,11.47
2022-08-27T07:56:07.970Z,13.83
2022-08-27T08:01:12.612Z,12.40
2022-08-27T08:06:17.764Z,10.53
2022-08-27T08:11:21.507Z,11.90
2022-08-27T08:16:31.473Z,10.07
2022-08-27T08:21:35.362Z,8.63
2022-08-27T08:26:38.341Z,10.33
2022-08-27T08:31:43.286Z,11.53
2022-08-27T08:36:54.665Z,9.70
2022-08-27T08:42:00.333Z,10.40
2022-08-27T08:47:10.549Z,8.97
2022-08-27T08:52:31.543Z,8.97
2022-08-27T08:57:40.475Z,9.00
2022-08-27T09:02:52.355Z,8.83
2022-08-27T09:08:28.407Z,10.10
2022-08-27T09:13:28.860Z,9.10
2022-08-27T09:18:37.029Z,8.57
2022-08-27T09:23:52.530Z,9.60
2022-08-27T09:29:22.743Z,10.43
2022-08-27T09:34:34.782Z,10.07
2022-08-27T09:39:46.971Z,8.90
2022-08-27T09:44:53.568Z,7.97
2022-08-27T09:50:09.878Z,8.23
2022-08-27T09:55:13.081Z,11.20
2022-08-27T10:00:19.635Z,13.23
2022-08-27T10:05:29.662Z,9.50
2022-08-27T10:10:54.045Z,9.67
2022-08-27T10:16:16.155Z,13.10
2022-08-27T10:21:30.821Z,11.13
2022-08-27T10:26:45.708Z,10.00
2022-08-27T10:31:59.740Z,7.87
2022-08-27T10:37:19.669Z,7.33
2022-08-27T10:42:29.584Z,6.90
2022-08-27T10:47:56.617Z,6.30
2022-08-27T10:53:07.243Z,6.53
2022-08-27T10:58:27.610Z,5.60
2022-08-27T11:03:37.374Z,5.73
2022-08-27T11:08:50.998Z,6.77
2022-08-27T11:14:01.202Z,6.57
2022-08-27T11:19:14.019Z,6.63
2022-08-27T11:24:30.891Z,5.93
2022-08-27T11:29:45.647Z,9.00
2022-08-27T11:34:55.999Z,9.17
2022-08-27T11:40:20.910Z,11.03
2022-08-27T11:45:30.924Z,6.63
2022-08-27T11:50:34.069Z,7.73
2022-08-27T11:55:40.628Z,10.00
2022-08-27T12:00:44.469Z,10.47
2022-08-27T12:05:49.865Z,11.13
2022-08-27T12:11:21.336Z,10.73
2022-08-27T12:16:35.397Z,11.63
2022-08-27T12:21:50.618Z,8.73
2022-08-27T12:27:01.163Z,8.93
2022-08-27T12:32:12.612Z,8.70
2022-08-27T12:37:15.913Z,12.27
2022-08-27T12:42:23.422Z,11.23
2022-08-27T12:47:27.219Z,11.43
2022-08-27T12:52:46.317Z,10.33
2022-08-27T12:58:01.515Z,9.90
2022-08-27T13:03:27.645Z,10.30
2022-08-27T13:08:32.903Z,9.77
2022-08-27T13:13:37.572Z,10.43
2022-08-27T13:18:41.549Z,9.03
2022-08-27T13:23:55.217Z,13.17
2022-08-27T13:29:03.532Z,13.97
2022-08-27T13:34:08.196Z,11.10
2022-08-27T13:39:11.281Z,12.03
2022-08-27T13:44:20.297Z,10.50
2022-08-27T13:49:25.762Z,10.67
2022-08-27T13:54:29.548Z,11.30
2022-08-27T13:59:33.972Z,10.63
2022-08-27T14:04:39.971Z,15.57
2022-08-27T14:09:51.303Z,18.83
2022-08-27T14:15:00.554Z,15.23
2022-08-27T14:20:06.646Z,14.13
2022-08-27T14:25:13.237Z,15.47
2022-08-27T14:30:19.741Z,19.67
2022-08-27T14:35:28.423Z,17.13
2022-08-27T14:40:31.660Z,15.60
2022-08-27T14:45:39.681Z,15.37
2022-08-27T14:50:43.549Z,15.10
2022-08-27T14:55:51.552Z,15.83
2022-08-27T15:00:57.789Z,13.97
2022-08-27T15:06:00.822Z,13.10
2022-08-27T15:11:03.962Z,17.63
2022-08-27T15:16:08.562Z,13.87
2022-08-27T15:21:11.732Z,17.93
2022-08-27T15:26:14.869Z,37.70
2022-08-27T15:31:19.662Z,20.90
2022-08-27T15:36:22.782Z,17.83
2022-08-27T15:41:29.123Z,15.20
2022-08-27T15:46:34.234Z,14.07
2022-08-27T15:51:38.168Z,14.37
2022-08-27T15:56:41.206Z,16.27
2022-08-27T16:01:45.764Z,14.67
2022-08-27T16:06:49.766Z,18.57
2022-08-27T16:11:52.826Z,29.10
2022-08-27T16:16:58.702Z,17.37
2022-08-27T16:22:01.684Z,12.87
2022-08-27T16:27:05.179Z,20.63
2022-08-27T16:32:14.435Z,13.30
2022-08-27T16:37:17.595Z,11.27
2022-08-27T16:42:22.010Z,12.63
2022-08-27T16:47:26.512Z,12.60
2022-08-27T16:52:30.155Z,10.83
2022-08-27T16:57:33.128Z,12.00
2022-08-27T17:02:38.061Z,15.07
2022-08-27T17:07:41.108Z,10.83
2022-08-27T17:12:48.583Z,11.70
2022-08-27T17:17:52.942Z,10.17
2022-08-27T17:22:56.685Z,10.70
2022-08-27T17:28:00.589Z,10.90
2022-08-27T17:33:05.394Z,12.27
2022-08-27T17:38:09.680Z,16.80
2022-08-27T17:43:12.729Z,13.30
2022-08-27T17:48:18.048Z,15.50
2022-08-27T17:53:22.420Z,14.10
2022-08-27T17:58:26.189Z,15.13
2022-08-27T18:03:30.636Z,13.90
2022-08-27T18:08:50.603Z,17.80
2022-08-27T18:13:56.438Z,15.63
2022-08-27T18:19:00.857Z,15.73
2022-08-27T18:24:07.267Z,16.07
2022-08-27T18:29:11.049Z,13.23
2022-08-27T18:34:20.065Z,14.93
2022-08-27T18:39:25.667Z,15.90
2022-08-27T18:44:29.080Z,12.30
2022-08-27T18:49:33.937Z,9.47
2022-08-27T18:54:37.096Z,12.00
2022-08-27T18:59:40.312Z,12.17
2022-08-27T19:04:45.874Z,9.83
2022-08-27T19:09:49.050Z,10.27
2022-08-27T19:14:52.347Z,15.00
2022-08-27T19:19:57.714Z,13.37
2022-08-27T19:25:01.063Z,10.00
2022-08-27T19:30:04.625Z,8.10
2022-08-27T19:35:11.221Z,12.90
2022-08-27T19:40:16.006Z,8.30
2022-08-27T19:45:21.951Z,8.33
2022-08-27T19:50:27.890Z,8.80
2022-08-27T19:55:31.051Z,8.07
2022-08-27T20:00:34.163Z,7.13
2022-08-27T20:05:39.423Z,50.27
2022-08-27T20:10:42.843Z,16.77
2022-08-27T20:15:46.184Z,9.00
2022-08-27T20:20:52.599Z,5.97
2022-08-27T20:26:01.101Z,8.67
2022-08-27T20:31:04.594Z,6.20
2022-08-27T20:36:09.782Z,6.50
2022-08-27T20:41:12.800Z,8.87
2022-08-27T20:46:16.363Z,10.57
2022-08-27T20:51:21.093Z,9.27
2022-08-27T20:56:24.216Z,7.20
2022-08-27T21:01:27.431Z,7.50
2022-08-27T21:06:33.592Z,5.07
2022-08-27T21:11:36.669Z,8.03
2022-08-27T21:16:39.706Z,4.80
2022-08-27T21:21:44.190Z,5.30
2022-08-27T21:26:47.611Z,5.20
2022-08-27T21:31:51.744Z,6.93
2022-08-27T21:36:56.202Z,6.20
2022-08-27T21:42:00.725Z,4.67
2022-08-27T21:47:03.971Z,6.70
2022-08-27T21:52:08.543Z,6.43
2022-08-27T21:57:14.878Z,7.50
2022-08-27T22:02:38.860Z,5.80
2022-08-27T22:07:44.013Z,7.40
2022-08-27T22:12:47.221Z,6.00
2022-08-27T22:17:51.399Z,7.27
2022-08-27T22:22:57.083Z,5.60
2022-08-27T22:28:00.140Z,9.33
2022-08-27T22:33:03.212Z,6.00
2022-08-27T22:38:08.204Z,5.93
2022-08-27T22:43:12.103Z,7.73
2022-08-27T22:48:15.208Z,7.87
2022-08-27T22:53:19.628Z,6.07
2022-08-27T22:58:24.381Z,6.33
2022-08-27T23:03:28.276Z,13.43
2022-08-27T23:08:32.688Z,7.50
2022-08-27T23:13:35.775Z,7.33
2022-08-27T23:18:39.879Z,7.30
2022-08-27T23:23:44.335Z,10.47
2022-08-27T23:28:47.626Z,12.40
2022-08-27T23:33:53.684Z,11.90
2022-08-27T23:38:58.617Z,8.97
2022-08-27T23:44:01.980Z,8.33
2022-08-27T23:49:05.374Z,8.97
2022-08-27T23:54:10.171Z,10.00
2022-08-27T23:59:13.196Z,10.93
